Time;durP1;ratioP1;P1;durP2;ratioP2;P2;SDS_P1;SDS_P2;PMS_P1;PMS_P2;Temp;Humidity;BMP_temperature;BMP_pressure;BME280_temperature;BME280_humidity;BME280_pressure;Samples;Min_cycle;Max_cycle;Signal;HPM_P1;HPM_P2
2021/01/23 00:01:10;;;;;;;24.07;13.98;;;;;;;7.32;55.59;100228.23;1780627;80;21566;-75
2021/01/23 00:03:38;;;;;;;17.85;11.43;;;;;;;7.31;55.52;100227.41;1780447;80;21184;-75
2021/01/23 00:06:05;;;;;;;18.17;10.90;;;;;;;7.32;55.58;100229.57;1780817;80;21510;-74
2021/01/23 00:08:33;;;;;;;15.40;9.60;;;;;;;7.34;55.54;100228.42;1780590;80;21179;-74
2021/01/23 00:11:01;;;;;;;19.17;12.18;;;;;;;7.35;55.55;100223.94;1780776;80;21335;-74
2021/01/23 00:13:29;;;;;;;15.65;11.08;;;;;;;7.38;55.48;100228.98;1780419;80;21254;-75
2021/01/23 00:15:57;;;;;;;19.15;11.75;;;;;;;7.42;55.55;100221.55;1780709;80;21776;-78
2021/01/23 00:18:25;;;;;;;18.20;11.85;;;;;;;7.41;55.77;100220.72;1780612;80;21206;-75
2021/01/23 00:20:53;;;;;;;18.17;10.98;;;;;;;7.43;55.78;100218.73;1780587;80;21195;-77
2021/01/23 00:23:21;;;;;;;14.28;10.50;;;;;;;7.47;55.77;100220.13;1780380;79;21465;-75
2021/01/23 00:25:49;;;;;;;20.20;11.45;;;;;;;7.47;55.72;100224.13;1780384;80;21190;-76
2021/01/23 00:28:17;;;;;;;14.85;10.23;;;;;;;7.44;55.78;100220.41;1780740;80;21526;-76
2021/01/23 00:30:46;;;;;;;14.55;9.35;;;;;;;7.41;55.87;100220.72;1780520;80;21186;-76
2021/01/23 00:33:14;;;;;;;15.60;10.40;;;;;;;7.40;55.97;100221.67;1780693;80;21131;-75
2021/01/23 00:35:42;;;;;;;14.98;10.28;;;;;;;7.41;55.97;100215.88;1780634;80;21263;-75
2021/01/23 00:38:10;;;;;;;20.68;11.68;;;;;;;7.43;56.02;100209.41;1780856;80;21060;-78
2021/01/23 00:40:38;;;;;;;17.85;11.53;;;;;;;7.47;56.16;100204.64;1780556;80;21012;-75
2021/01/23 00:43:05;;;;;;;15.83;10.80;;;;;;;7.53;56.21;100207.55;1752776;80;21197;-77
2021/01/23 00:45:35;;;;;;;15.55;10.05;;;;;;;7.61;56.14;100202.84;1780671;80;21191;-76
2021/01/23 00:48:13;;;;;;;14.20;10.15;;;;;;;7.66;56.13;100213.06;1780837;80;21447;-76
2021/01/23 00:50:40;;;;;;;14.80;10.68;;;;;;;7.78;56.02;100206.58;1780675;80;21206;-74
2021/01/23 00:53:08;;;;;;;17.42;11.60;;;;;;;7.91;55.78;100207.58;1780883;80;21182;-76
2021/01/23 00:55:36;;;;;;;14.78;10.23;;;;;;;8.02;55.56;100217.55;1780673;80;21202;-78
2021/01/23 00:58:04;;;;;;;13.53;10.25;;;;;;;8.13;55.10;100220.03;1780575;80;21186;-76
2021/01/23 01:00:32;;;;;;;15.75;10.90;;;;;;;8.21;54.67;100223.77;1780452;80;21323;-76
2021/01/23 01:03:02;;;;;;;16.07;10.85;;;;;;;8.26;54.49;100226.83;1780567;80;21186;-77
2021/01/23 01:05:32;;;;;;;19.77;11.93;;;;;;;8.33;54.44;100234.09;1779595;79;21657;-73
2021/01/23 01:07:59;;;;;;;17.45;10.80;;;;;;;8.39;54.44;100233.52;1780415;80;21175;-75
2021/01/23 01:10:27;;;;;;;19.00;11.85;;;;;;;8.50;54.26;100231.66;1780403;80;21182;-74
2021/01/23 01:12:56;;;;;;;17.00;10.82;;;;;;;8.54;54.07;100236.55;1778366;80;21934;-75
2021/01/23 01:15:24;;;;;;;18.05;11.70;;;;;;;8.58;53.95;100235.26;1752352;80;21522;-76
2021/01/23 01:17:52;;;;;;;18.95;11.73;;;;;;;8.59;53.87;100231.59;1780330;80;21167;-75
2021/01/23 01:20:20;;;;;;;19.12;11.70;;;;;;;8.62;53.75;100222.42;1780400;80;21622;-76
2021/01/23 01:22:48;;;;;;;16.20;10.05;;;;;;;8.56;53.96;100223.87;1780200;79;21186;-77
2021/01/23 01:25:16;;;;;;;13.50;8.35;;;;;;;8.50;54.14;100216.48;1780791;80;21899;-77
2021/01/23 01:27:43;;;;;;;12.75;8.88;;;;;;;8.59;54.19;100216.91;1780648;80;21202;-77
2021/01/23 01:30:15;;;;;;;13.85;9.73;;;;;;;8.49;54.42;100208.59;1780739;80;21119;-77
2021/01/23 01:32:43;;;;;;;12.10;8.03;;;;;;;8.39;54.72;100211.34;1780748;80;21171;-75
2021/01/23 01:35:11;;;;;;;12.18;7.78;;;;;;;8.35;54.98;100211.26;1780833;80;21443;-74
2021/01/23 01:37:38;;;;;;;12.98;8.25;;;;;;;8.25;55.31;100206.48;1780737;80;22092;-77
2021/01/23 01:40:07;;;;;;;9.63;7.53;;;;;;;8.17;55.48;100203.22;1780697;80;21174;-78
2021/01/23 01:42:35;;;;;;;12.37;8.73;;;;;;;8.16;55.68;100201.54;1780634;80;21398;-73
2021/01/23 01:45:05;;;;;;;11.15;8.30;;;;;;;8.19;55.86;100200.41;1780846;80;21649;-74
2021/01/23 01:47:34;;;;;;;10.63;6.90;;;;;;;8.19;56.03;100197.25;1780852;80;21640;-74
2021/01/23 01:50:04;;;;;;;10.40;7.25;;;;;;;8.19;56.11;100201.25;1780880;80;21364;-75
2021/01/23 01:52:32;;;;;;;10.15;7.58;;;;;;;8.14;56.27;100200.37;1780804;80;21202;-73
2021/01/23 01:55:00;;;;;;;11.40;7.85;;;;;;;8.10;56.34;100205.65;1780636;80;21662;-74
2021/01/23 01:57:29;;;;;;;12.93;9.13;;;;;;;8.07;56.43;100199.27;1780663;80;21664;-76
2021/01/23 01:59:56;;;;;;;12.45;9.15;;;;;;;8.07;56.51;100193.94;1780726;80;21186;-73
2021/01/23 02:03:07;;;;;;;12.78;9.10;;;;;;;8.06;56.51;100194.93;1780525;80;21211;-74
2021/01/23 02:06:01;;;;;;;10.00;6.78;;;;;;;8.07;56.66;100192.59;1780467;80;21325;-74
2021/01/23 02:08:55;;;;;;;14.75;9.90;;;;;;;8.14;56.64;100201.70;1769818;80;21230;-75
2021/01/23 02:11:56;;;;;;;13.25;9.10;;;;;;;8.14;56.64;100200.86;1780702;80;21507;-75
2021/01/23 02:14:30;;;;;;;12.90;8.38;;;;;;;8.17;56.60;100199.21;1780818;80;21873;-78
2021/01/23 02:17:02;;;;;;;12.45;8.98;;;;;;;8.20;56.54;100206.09;1781016;80;22022;-76
2021/01/23 02:20:18;;;;;;;12.88;8.75;;;;;;;8.19;56.58;100194.58;1753300;81;21250;-77
2021/01/23 02:23:02;;;;;;;9.60;7.33;;;;;;;8.21;56.58;100199.76;1780390;80;21609;-76
2021/01/23 02:25:35;;;;;;;12.20;7.65;;;;;;;8.23;56.58;100195.12;1780812;80;21163;-74
2021/01/23 02:28:10;;;;;;;13.98;8.85;;;;;;;8.21;56.69;100204.59;1780871;80;21198;-74
2021/01/23 02:30:43;;;;;;;12.68;9.25;;;;;;;8.23;56.63;100195.12;1780932;80;21983;-76
2021/01/23 02:33:10;;;;;;;11.43;8.15;;;;;;;8.24;56.67;100188.30;1780663;79;21186;-74
2021/01/23 02:35:38;;;;;;;15.55;10.03;;;;;;;8.22;56.70;100186.29;1752511;80;21171;-74
2021/01/23 02:38:06;;;;;;;12.33;8.93;;;;;;;8.20;56.88;100192.75;1780776;80;21182;-74
2021/01/23 02:40:35;;;;;;;13.43;9.08;;;;;;;8.18;56.96;100196.08;1780626;80;21147;-75
2021/01/23 02:43:04;;;;;;;13.05;9.63;;;;;;;8.17;56.92;100199.21;1780777;80;21800;-76
2021/01/23 02:45:32;;;;;;;14.18;10.20;;;;;;;8.23;56.95;100203.14;1753190;81;21181;-75
2021/01/23 02:48:00;;;;;;;14.65;10.53;;;;;;;8.27;56.99;100192.52;1780786;80;21480;-75
2021/01/23 02:50:28;;;;;;;13.35;9.43;;;;;;;8.31;56.94;100188.53;1780561;80;21175;-75
2021/01/23 02:53:19;;;;;;;10.98;8.38;;;;;;;8.33;56.95;100187.90;1780727;80;21155;-75
2021/01/23 02:55:49;;;;;;;14.07;9.80;;;;;;;8.34;56.92;100186.41;1780516;80;21361;-77
2021/01/23 02:58:20;;;;;;;13.93;10.20;;;;;;;8.36;56.87;100180.94;1780662;80;21621;-76
2021/01/23 03:00:47;;;;;;;13.98;9.90;;;;;;;8.40;56.76;100186.32;1780573;80;21210;-74
2021/01/23 03:03:17;;;;;;;12.65;8.58;;;;;;;8.44;56.64;100186.37;1780832;80;21179;-75
2021/01/23 03:05:44;;;;;;;12.47;8.98;;;;;;;8.43;56.68;100174.02;1780753;80;21613;-76
2021/01/23 03:08:13;;;;;;;13.80;9.25;;;;;;;8.40;56.69;100174.31;1753335;81;22857;-77
2021/01/23 03:10:44;;;;;;;13.40;8.28;;;;;;;8.34;56.72;100170.39;1780529;80;21327;-76
2021/01/23 03:13:13;;;;;;;16.07;11.30;;;;;;;8.37;56.80;100163.45;1780834;80;21104;-76
2021/01/23 03:15:42;;;;;;;14.98;9.98;;;;;;;8.37;56.78;100157.28;1780613;80;21712;-75
2021/01/23 03:18:10;;;;;;;15.78;9.50;;;;;;;8.38;56.84;100161.12;1780745;80;21204;-76
2021/01/23 03:20:38;;;;;;;16.77;9.93;;;;;;;8.39;56.74;100165.97;1780536;80;22720;-74
2021/01/23 03:23:06;;;;;;;13.93;9.85;;;;;;;8.38;56.74;100179.81;1780535;80;21215;-74
2021/01/23 03:25:34;;;;;;;15.90;10.18;;;;;;;8.38;56.77;100180.31;1780415;80;21336;-74
2021/01/23 03:28:02;;;;;;;13.58;8.88;;;;;;;8.42;56.73;100181.69;1780144;80;21191;-74
2021/01/23 03:30:32;;;;;;;16.90;11.38;;;;;;;8.49;56.57;100181.41;1784287;77;21165;-77
2021/01/23 03:32:59;;;;;;;16.07;10.35;;;;;;;8.52;56.47;100181.12;1795403;77;22335;-75
2021/01/23 03:35:28;;;;;;;20.95;11.38;;;;;;;8.58;56.38;100189.01;1795833;77;21164;-75
2021/01/23 03:37:56;;;;;;;23.30;12.23;;;;;;;8.70;56.15;100194.97;1795276;77;21489;-74
2021/01/23 03:40:23;;;;;;;20.60;11.45;;;;;;;8.81;55.93;100192.92;1793275;77;21179;-76
2021/01/23 03:42:51;;;;;;;23.00;11.85;;;;;;;8.89;55.74;100194.81;1794017;77;21156;-75
2021/01/23 03:45:19;;;;;;;25.55;13.03;;;;;;;8.99;55.46;100190.71;1787443;79;22762;-75
2021/01/23 03:47:46;;;;;;;23.35;13.38;;;;;;;9.03;55.22;100198.27;1792958;77;21729;-77
2021/01/23 03:50:15;;;;;;;29.90;14.78;;;;;;;9.07;55.03;100192.95;1794997;77;21117;-75
2021/01/23 03:52:42;;;;;;;36.60;17.12;;;;;;;9.12;54.86;100195.16;1782512;79;21171;-75
2021/01/23 03:55:11;;;;;;;45.50;20.97;;;;;;;9.14;54.78;100200.70;1779995;80;21115;-76
2021/01/23 03:57:40;;;;;;;33.45;17.35;;;;;;;9.14;54.71;100194.03;1780391;80;21353;-76
2021/01/23 04:00:11;;;;;;;30.48;17.90;;;;;;;9.10;54.75;100202.00;1780410;80;21206;-77
2021/01/23 04:02:39;;;;;;;32.42;17.80;;;;;;;9.04;54.84;100197.30;1780629;80;21145;-76
2021/01/23 04:05:10;;;;;;;40.25;21.15;;;;;;;8.95;54.94;100199.55;1780710;80;21207;-76
2021/01/23 04:07:38;;;;;;;30.57;15.88;;;;;;;8.84;55.09;100193.94;1780547;80;21560;-75
2021/01/23 04:10:08;;;;;;;25.40;14.28;;;;;;;8.82;55.18;100201.77;1780537;80;21175;-74
2021/01/23 04:12:36;;;;;;;21.87;13.90;;;;;;;8.77;55.28;100199.56;1780403;80;21037;-76
2021/01/23 04:15:05;;;;;;;23.47;15.00;;;;;;;8.73;55.41;100201.36;1780642;80;21120;-77
2021/01/23 04:17:34;;;;;;;24.15;14.80;;;;;;;8.64;55.63;100199.09;1780669;80;21666;-77
2021/01/23 04:20:03;;;;;;;21.65;13.78;;;;;;;8.61;55.76;100197.56;1780616;80;21172;-76
2021/01/23 04:22:31;;;;;;;16.75;9.88;;;;;;;8.58;55.97;100199.69;1780459;80;21361;-76
2021/01/23 04:25:00;;;;;;;15.18;9.33;;;;;;;8.51;56.35;100198.12;1780531;80;21182;-78
2021/01/23 04:27:27;;;;;;;14.60;9.58;;;;;;;8.48;56.59;100190.91;1780196;80;21171;-77
2021/01/23 04:29:55;;;;;;;19.27;11.55;;;;;;;8.47;56.64;100190.08;1780600;80;21216;-75
2021/01/23 04:32:23;;;;;;;17.25;9.50;;;;;;;8.44;56.79;100189.53;1780466;80;21092;-76
2021/01/23 04:34:51;;;;;;;20.12;10.68;;;;;;;8.39;57.01;100187.31;1780182;80;21622;-75
2021/01/23 04:37:19;;;;;;;22.15;13.22;;;;;;;8.34;57.15;100188.23;1780323;80;21241;-77
2021/01/23 04:39:47;;;;;;;17.73;10.18;;;;;;;8.28;57.23;100184.84;1780578;80;21156;-75
2021/01/23 04:42:15;;;;;;;16.27;10.08;;;;;;;8.28;57.33;100178.17;1780265;80;21132;-78
2021/01/23 04:44:43;;;;;;;20.80;11.90;;;;;;;8.26;57.49;100181.47;1780632;80;21109;-76
2021/01/23 04:47:11;;;;;;;24.35;12.20;;;;;;;8.23;57.60;100177.29;1780614;80;21358;-78
2021/01/23 04:49:38;;;;;;;25.82;13.78;;;;;;;8.23;57.62;100179.13;1780378;80;21156;-76
2021/01/23 04:52:06;;;;;;;18.00;10.78;;;;;;;8.22;57.71;100174.75;1780445;80;21179;-75
2021/01/23 04:54:34;;;;;;;22.22;13.28;;;;;;;8.24;57.71;100176.79;1780642;80;21509;-77
2021/01/23 04:57:03;;;;;;;18.57;11.38;;;;;;;8.23;57.70;100179.13;1780323;80;21658;-76
2021/01/23 04:59:31;;;;;;;18.87;10.48;;;;;;;8.27;57.68;100186.67;1780527;80;21202;-77
2021/01/23 05:02:22;;;;;;;16.50;9.73;;;;;;;8.29;57.80;100186.52;1780759;80;21634;-78
2021/01/23 05:05:01;;;;;;;16.27;10.23;;;;;;;8.29;57.90;100185.18;1779322;80;21179;-76
2021/01/23 05:07:38;;;;;;;15.95;9.38;;;;;;;8.31;57.94;100176.52;1780682;80;21216;-79
2021/01/23 05:10:24;;;;;;;12.05;8.15;;;;;;;8.32;57.96;100164.88;1780751;80;21168;-77
2021/01/23 05:12:53;;;;;;;11.60;7.72;;;;;;;8.32;58.15;100162.20;1780347;80;21326;-76
2021/01/23 05:15:28;;;;;;;16.40;10.55;;;;;;;8.33;58.29;100169.22;1781126;80;21116;-75
2021/01/23 05:18:06;;;;;;;16.45;11.28;;;;;;;8.38;58.18;100188.31;1785108;79;21214;-75
2021/01/23 05:20:52;;;;;;;17.17;10.55;;;;;;;8.43;58.09;100200.71;1754372;80;21867;-77
2021/01/23 05:23:22;;;;;;;15.88;9.43;;;;;;;8.53;57.99;100186.80;1811590;79;21577;-77
2021/01/23 05:25:58;;;;;;;12.80;8.23;;;;;;;8.59;57.86;100189.37;1812587;78;21401;-77
2021/01/23 05:28:32;;;;;;;15.10;9.33;;;;;;;8.58;57.77;100191.20;1811676;79;21533;-77
2021/01/23 05:31:01;;;;;;;15.88;10.18;;;;;;;8.58;57.78;100191.67;1812754;79;21102;-75
2021/01/23 05:33:33;;;;;;;14.18;10.10;;;;;;;8.56;57.85;100192.34;1812355;79;21176;-76
2021/01/23 05:36:07;;;;;;;13.32;8.33;;;;;;;8.55;57.90;100191.50;1812648;79;21101;-75
2021/01/23 05:38:40;;;;;;;11.90;8.20;;;;;;;8.61;57.76;100186.88;1812491;79;21481;-78
2021/01/23 05:41:13;;;;;;;17.20;10.50;;;;;;;8.55;57.95;100198.17;1779584;79;21192;-77
2021/01/23 05:43:51;;;;;;;16.30;9.58;;;;;;;8.53;58.02;100190.80;1797666;79;21200;-76
2021/01/23 05:46:30;;;;;;;17.30;11.30;;;;;;;8.65;58.00;100198.10;1812129;79;21498;-78
2021/01/23 05:48:58;;;;;;;16.65;11.03;;;;;;;8.80;57.59;100197.90;1812417;79;21165;-76
2021/01/23 05:51:26;;;;;;;13.38;9.63;;;;;;;8.84;57.54;100187.76;1812171;79;21804;-77
2021/01/23 05:53:54;;;;;;;12.63;9.15;;;;;;;8.88;57.38;100181.12;1812710;78;20964;-77
2021/01/23 05:56:22;;;;;;;17.37;11.15;;;;;;;8.93;57.44;100188.17;1812993;79;21097;-76
2021/01/23 05:58:49;;;;;;;22.35;14.07;;;;;;;8.94;57.44;100189.00;1812361;79;21181;-78
2021/01/23 06:01:22;;;;;;;18.60;11.22;;;;;;;8.97;57.33;100184.70;1812681;79;21475;-75
2021/01/23 06:03:53;;;;;;;14.40;9.33;;;;;;;8.99;57.30;100182.70;1812952;79;21439;-76
2021/01/23 06:06:21;;;;;;;13.75;9.10;;;;;;;8.99;57.31;100182.20;1812752;79;21178;-75
2021/01/23 06:08:53;;;;;;;14.68;10.05;;;;;;;9.02;57.30;100189.08;1812621;79;21150;-77
2021/01/23 06:11:33;;;;;;;17.55;10.98;;;;;;;9.02;57.28;100185.91;1812783;79;21142;-76
2021/01/23 06:14:01;;;;;;;18.55;12.50;;;;;;;9.02;57.28;100185.91;1812856;79;21632;-75
2021/01/23 06:16:38;;;;;;;21.35;14.30;;;;;;;9.04;57.27;100191.95;1812504;79;22225;-78
2021/01/23 06:19:29;;;;;;;23.62;14.30;;;;;;;9.07;57.19;100200.97;1812819;79;21169;-78
2021/01/23 06:21:57;;;;;;;25.40;15.28;;;;;;;9.16;57.08;100205.88;1812855;79;21418;-79
2021/01/23 06:24:41;;;;;;;23.05;15.65;;;;;;;9.26;57.08;100208.45;1781595;79;21046;-76
2021/01/23 06:27:08;;;;;;;25.88;16.02;;;;;;;9.34;56.94;100208.52;1793217;79;21088;-77
2021/01/23 06:29:40;;;;;;;24.25;15.05;;;;;;;9.42;56.73;100207.75;1780766;79;21473;-79
2021/01/23 06:32:19;;;;;;;23.87;15.43;;;;;;;9.44;56.56;100212.43;1784936;79;21199;-77
2021/01/23 06:34:58;;;;;;;23.18;13.95;;;;;;;9.46;56.43;100208.62;1812190;79;21193;-78
2021/01/23 06:37:39;;;;;;;24.50;16.00;;;;;;;9.34;56.75;100201.84;1813134;79;21183;-78
2021/01/23 06:40:27;;;;;;;19.90;13.00;;;;;;;9.50;56.34;100205.98;1812781;79;21119;-80
2021/01/23 06:42:55;;;;;;;22.82;14.45;;;;;;;9.45;56.49;100214.09;1812918;79;21360;-80
2021/01/23 06:45:27;;;;;;;21.68;13.75;;;;;;;9.51;56.28;100202.80;1812104;79;21204;-77
2021/01/23 06:47:58;;;;;;;20.32;12.85;;;;;;;9.54;56.15;100202.49;1812320;79;21196;-77
2021/01/23 06:50:42;;;;;;;22.25;15.25;;;;;;;9.54;56.13;100205.17;1811671;78;21167;-77
2021/01/23 06:53:22;;;;;;;23.95;14.80;;;;;;;9.58;56.01;100203.36;1811611;79;21148;-78
2021/01/23 06:55:54;;;;;;;24.60;15.35;;;;;;;9.68;55.85;100211.77;1811489;79;21370;-76
2021/01/23 06:58:29;;;;;;;25.50;15.60;;;;;;;9.74;55.73;100215.13;1808626;79;21211;-78
2021/01/23 07:01:02;;;;;;;28.40;16.02;;;;;;;9.78;55.58;100220.51;1811070;79;21493;-74
2021/01/23 07:03:32;;;;;;;31.50;16.50;;;;;;;9.85;55.32;100218.86;1809338;79;21635;-77
2021/01/23 07:06:02;;;;;;;26.60;14.30;;;;;;;9.91;55.12;100226.27;1790370;79;21195;-77
2021/01/23 07:08:33;;;;;;;24.50;13.58;;;;;;;9.79;55.40;100214.16;1804040;79;21160;-78
2021/01/23 07:11:17;;;;;;;22.25;13.70;;;;;;;9.77;55.50;100211.66;1811847;79;21096;-75
2021/01/23 07:14:06;;;;;;;27.80;15.45;;;;;;;9.81;55.43;100213.48;1811940;79;21678;-80
2021/01/23 07:16:38;;;;;;;25.95;13.90;;;;;;;9.81;55.27;100208.13;1812456;79;21199;-78
2021/01/23 07:19:07;;;;;;;23.02;12.88;;;;;;;9.73;55.43;100207.61;1812412;79;21248;-78
2021/01/23 07:21:41;;;;;;;21.15;12.88;;;;;;;9.73;55.45;100212.12;1785783;79;22215;-76
2021/01/23 07:24:09;;;;;;;25.82;15.40;;;;;;;10.04;54.76;100209.27;1753045;80;21193;-77
2021/01/23 07:26:38;;;;;;;27.07;16.50;;;;;;;10.06;54.65;100211.28;1779961;80;21195;-77
2021/01/23 07:29:09;;;;;;;25.57;15.95;;;;;;;9.84;55.13;100211.84;1780443;77;21199;-78
2021/01/23 07:31:37;;;;;;;25.08;15.20;;;;;;;9.86;55.07;100209.86;1779769;80;21175;-76
2021/01/23 07:34:12;;;;;;;28.73;13.80;;;;;;;9.89;54.98;100213.53;1779136;80;21370;-78
2021/01/23 07:36:44;;;;;;;28.23;16.27;;;;;;;9.90;54.90;100216.54;1722695;77;21236;-79
2021/01/23 07:39:21;;;;;;;32.30;18.42;;;;;;;10.01;54.71;100226.98;1793158;79;21209;-76
2021/01/23 07:41:53;;;;;;;30.65;19.05;;;;;;;10.01;54.69;100213.59;1778570;79;21216;-78
2021/01/23 07:44:26;;;;;;;33.42;18.25;;;;;;;10.02;54.61;100209.92;1768949;79;22273;-80
2021/01/23 07:46:56;;;;;;;27.37;15.68;;;;;;;10.06;54.50;100207.27;1785983;79;21450;-79
2021/01/23 07:49:26;;;;;;;25.57;13.98;;;;;;;10.04;54.43;100209.78;1797226;78;21172;-77
2021/01/23 07:52:08;;;;;;;21.42;12.45;;;;;;;9.99;54.39;100207.58;1815987;78;21181;-78
2021/01/23 07:54:53;;;;;;;25.12;14.43;;;;;;;9.93;54.43;100218.91;1759743;80;21165;-78
2021/01/23 07:57:21;;;;;;;29.30;15.93;;;;;;;10.09;54.10;100223.00;1780447;80;21098;-77
2021/01/23 07:59:50;;;;;;;26.68;15.58;;;;;;;10.13;53.89;100228.88;1779347;80;22713;-79
2021/01/23 08:02:19;;;;;;;27.40;15.63;;;;;;;10.08;53.84;100217.33;1778652;80;21212;-79
2021/01/23 08:04:56;;;;;;;25.17;14.23;;;;;;;10.02;53.85;100224.63;1791787;79;21177;-77
2021/01/23 08:07:30;;;;;;;29.15;14.55;;;;;;;9.95;53.92;100215.59;1810052;79;21212;-76
2021/01/23 08:10:16;;;;;;;23.85;14.25;;;;;;;9.86;54.04;100220.56;1810196;79;21173;-79
2021/01/23 08:12:58;;;;;;;23.47;13.53;;;;;;;9.73;54.28;100215.63;1810339;79;22048;-77
2021/01/23 08:15:32;;;;;;;18.92;11.55;;;;;;;9.56;54.55;100209.34;1810150;79;21366;-78
2021/01/23 08:18:00;;;;;;;15.83;10.23;;;;;;;9.48;54.74;100213.80;1787846;79;21568;-76
2021/01/23 08:20:35;;;;;;;18.52;11.97;;;;;;;9.43;54.93;100210.76;1777774;80;21192;-80
2021/01/23 08:23:09;;;;;;;20.55;13.45;;;;;;;9.38;55.06;100207.22;1779501;80;21086;-77
2021/01/23 08:25:44;;;;;;;19.32;11.55;;;;;;;9.33;55.20;100209.02;1766289;80;21306;-78
2021/01/23 08:28:14;;;;;;;18.90;10.72;;;;;;;9.20;55.64;100211.77;1751888;81;21166;-77
2021/01/23 08:30:43;;;;;;;21.52;12.73;;;;;;;9.12;55.92;100216.03;1752373;80;21177;-78
2021/01/23 08:33:12;;;;;;;25.43;14.73;;;;;;;9.26;55.71;100209.80;1760838;79;21427;-79
2021/01/23 08:35:41;;;;;;;23.32;13.28;;;;;;;9.26;55.64;100204.45;1770963;79;21208;-77
2021/01/23 08:38:09;;;;;;;21.23;13.05;;;;;;;9.28;55.70;100203.31;1812276;79;21609;-76
2021/01/23 08:40:38;;;;;;;20.52;13.43;;;;;;;9.34;55.68;100197.83;1819450;77;21055;-76
2021/01/23 08:43:06;;;;;;;23.52;13.65;;;;;;;9.41;55.55;100201.57;1788645;80;21206;-76
2021/01/23 08:45:34;;;;;;;21.12;12.18;;;;;;;9.41;55.46;100194.89;1787860;80;21196;-76
2021/01/23 08:48:03;;;;;;;19.55;13.05;;;;;;;9.49;55.38;100202.10;1787922;80;21181;-77
2021/01/23 08:50:31;;;;;;;21.73;12.85;;;;;;;9.55;55.27;100199.65;1787454;80;21919;-77
2021/01/23 08:52:59;;;;;;;23.45;14.50;;;;;;;9.57;55.17;100198.98;1786987;80;21201;-78
2021/01/23 08:55:26;;;;;;;21.48;11.43;;;;;;;9.58;55.15;100194.47;1787001;80;21165;-77
2021/01/23 08:57:54;;;;;;;19.55;12.40;;;;;;;9.54;55.19;100187.79;1760324;80;21046;-77
2021/01/23 09:00:23;;;;;;;16.42;10.95;;;;;;;9.59;55.23;100194.83;1787390;80;21149;-79
2021/01/23 09:02:51;;;;;;;19.30;12.13;;;;;;;9.61;55.18;100193.66;1786586;80;21420;-78
2021/01/23 09:05:19;;;;;;;25.20;14.00;;;;;;;9.59;55.24;100188.98;1785068;79;21175;-76
2021/01/23 09:07:47;;;;;;;35.03;16.60;;;;;;;9.60;55.28;100191.98;1793824;79;21295;-81
2021/01/23 09:10:20;;;;;;;34.58;14.93;;;;;;;9.64;55.24;100189.84;1793810;79;21207;-77
2021/01/23 09:12:48;;;;;;;28.52;15.43;;;;;;;9.71;55.20;100196.22;1794382;79;21205;-77
2021/01/23 09:15:17;;;;;;;29.00;16.60;;;;;;;9.80;55.15;100191.75;1776863;79;21196;-79
2021/01/23 09:17:46;;;;;;;28.83;16.37;;;;;;;9.86;55.01;100191.13;1773474;79;21180;-78
2021/01/23 09:20:14;;;;;;;17.77;10.90;;;;;;;9.93;54.72;100196.67;1773436;79;21151;-78
2021/01/23 09:22:42;;;;;;;21.77;13.15;;;;;;;9.92;54.56;100197.17;1780035;79;21152;-79
2021/01/23 09:25:11;;;;;;;23.15;14.15;;;;;;;9.88;54.50;100182.44;1782002;79;21208;-78
2021/01/23 09:27:39;;;;;;;22.58;14.13;;;;;;;9.87;54.56;100180.27;1790982;79;22225;-76
2021/01/23 09:30:09;;;;;;;19.15;12.00;;;;;;;9.81;54.79;100184.06;1774865;79;21542;-77
2021/01/23 09:32:36;;;;;;;16.48;10.32;;;;;;;9.91;54.50;100183.46;1779586;78;21558;-77
2021/01/23 09:35:06;;;;;;;13.35;9.13;;;;;;;9.90;54.44;100181.76;1780047;78;21205;-79
2021/01/23 09:37:35;;;;;;;16.02;10.72;;;;;;;9.85;54.51;100182.24;1768350;79;21497;-79
2021/01/23 09:40:05;;;;;;;17.48;11.12;;;;;;;9.82;54.55;100187.09;1770869;79;21802;-78
2021/01/23 09:42:34;;;;;;;17.50;12.05;;;;;;;9.80;54.61;100181.89;1773099;79;21585;-80
2021/01/23 09:45:02;;;;;;;18.10;11.88;;;;;;;9.80;54.62;100172.52;1776540;78;21170;-79
2021/01/23 09:47:30;;;;;;;14.73;10.95;;;;;;;9.81;54.70;100170.69;1774586;79;20970;-75
2021/01/23 09:50:01;;;;;;;17.77;11.80;;;;;;;9.89;54.61;100176.91;1791329;79;21124;-75
2021/01/23 09:52:29;;;;;;;16.45;11.60;;;;;;;10.00;54.45;100177.14;1781955;79;22682;-79
2021/01/23 09:54:58;;;;;;;18.85;12.00;;;;;;;10.10;54.23;100180.52;1770534;79;21136;-75
2021/01/23 09:57:26;;;;;;;21.40;13.80;;;;;;;10.14;54.08;100188.56;1772771;79;21176;-78
2021/01/23 09:59:54;;;;;;;18.30;12.33;;;;;;;10.15;53.93;100186.72;1783581;79;21116;-78
2021/01/23 10:02:21;;;;;;;17.77;11.85;;;;;;;9.94;54.48;100187.64;1780643;79;21105;-80
2021/01/23 10:04:49;;;;;;;21.82;14.25;;;;;;;10.01;54.50;100184.67;1772247;79;21449;-75
2021/01/23 10:07:17;;;;;;;21.80;13.72;;;;;;;10.07;54.36;100175.48;1782353;79;21607;-77
2021/01/23 10:09:45;;;;;;;20.43;14.20;;;;;;;10.11;54.33;100171.48;1776161;79;21569;-76
2021/01/23 10:12:15;;;;;;;19.87;13.03;;;;;;;10.15;54.21;100179.53;1794174;79;21124;-78
2021/01/23 10:14:42;;;;;;;18.85;12.18;;;;;;;10.14;54.08;100184.55;1795274;79;21109;-77
2021/01/23 10:17:13;;;;;;;14.20;10.48;;;;;;;10.14;54.25;100179.20;1793443;79;21204;-78
2021/01/23 10:19:41;;;;;;;23.77;13.68;;;;;;;10.17;54.20;100169.98;1794252;79;21137;-78
2021/01/23 10:22:09;;;;;;;19.10;13.32;;;;;;;10.21;54.28;100165.16;1800201;79;21126;-77
2021/01/23 10:24:37;;;;;;;15.78;10.85;;;;;;;10.26;54.18;100172.22;1808931;79;21589;-78
2021/01/23 10:27:05;;;;;;;15.58;11.22;;;;;;;10.27;54.07;100171.25;1805060;79;21105;-78
2021/01/23 10:29:34;;;;;;;20.05;12.05;;;;;;;10.28;53.91;100168.91;1790247;79;21459;-77
2021/01/23 10:32:03;;;;;;;17.30;9.03;;;;;;;10.28;54.05;100171.58;1786714;80;21117;-78
2021/01/23 10:34:30;;;;;;;19.52;12.65;;;;;;;10.28;53.82;100172.41;1787500;80;21183;-76
2021/01/23 10:36:58;;;;;;;20.92;12.03;;;;;;;10.25;53.84;100169.22;1787407;80;21130;-77
2021/01/23 10:39:26;;;;;;;14.60;9.35;;;;;;;10.26;53.94;100178.91;1787516;80;21114;-76
2021/01/23 10:41:53;;;;;;;18.85;11.68;;;;;;;10.32;53.76;100176.95;1786859;80;22194;-76
2021/01/23 10:44:21;;;;;;;18.00;10.98;;;;;;;10.27;53.73;100168.57;1787337;80;21145;-79
2021/01/23 10:46:51;;;;;;;15.95;9.83;;;;;;;10.27;53.76;100159.20;1786933;80;21537;-76
2021/01/23 10:49:19;;;;;;;18.98;12.78;;;;;;;10.27;53.74;100156.52;1785707;80;21177;-76
2021/01/23 10:51:49;;;;;;;17.40;12.80;;;;;;;10.26;53.86;100151.64;1775103;80;21274;-81
2021/01/23 10:54:16;;;;;;;18.80;12.85;;;;;;;10.30;53.85;100146.30;1725381;81;21390;-77
2021/01/23 10:56:46;;;;;;;15.32;10.95;;;;;;;10.44;53.80;100152.86;1778725;80;21195;-76
2021/01/23 10:59:14;;;;;;;13.53;10.23;;;;;;;10.56;53.58;100158.75;1779198;80;21191;-78
2021/01/23 11:01:42;;;;;;;16.12;11.25;;;;;;;10.68;53.34;100151.23;1786992;79;21169;-77
2021/01/23 11:04:12;;;;;;;16.20;11.33;;;;;;;10.77;53.18;100147.05;1754345;80;21176;-77
2021/01/23 11:06:39;;;;;;;17.60;11.35;;;;;;;10.83;52.99;100145.54;1770581;80;21436;-77
2021/01/23 11:09:07;;;;;;;15.75;11.65;;;;;;;10.91;52.91;100155.76;1789584;79;21241;-75
2021/01/23 11:11:36;;;;;;;15.98;12.03;;;;;;;10.93;52.62;100148.87;1781099;79;21113;-76
2021/01/23 11:14:05;;;;;;;15.85;10.72;;;;;;;10.87;52.62;100150.39;1779701;80;21193;-76
2021/01/23 11:16:35;;;;;;;15.80;11.03;;;;;;;10.85;52.59;100149.70;1793761;79;21081;-78
2021/01/23 11:19:04;;;;;;;14.68;11.45;;;;;;;10.83;52.69;100149.56;1784100;80;21378;-77
2021/01/23 11:21:32;;;;;;;16.70;12.05;;;;;;;10.82;52.77;100144.70;1778897;80;21187;-77
2021/01/23 11:24:01;;;;;;;19.82;12.82;;;;;;;10.86;52.74;100144.70;1794522;79;21154;-76
2021/01/23 11:26:34;;;;;;;28.55;15.43;;;;;;;10.91;52.75;100145.04;1788211;79;21086;-79
2021/01/23 11:29:03;;;;;;;32.23;17.17;;;;;;;11.17;52.29;100142.66;1764995;79;21192;-77
2021/01/23 11:31:31;;;;;;;29.55;16.35;;;;;;;11.29;51.95;100142.64;1761893;81;21187;-76
2021/01/23 11:34:01;;;;;;;29.87;16.67;;;;;;;11.36;51.77;100150.86;1761935;81;22282;-77